createdAt,value
2018-09-18T00:02:14.483Z,9.77
2018-09-18T00:04:44.864Z,9.47
2018-09-18T00:07:14.462Z,9.03
2018-09-18T00:09:43.901Z,9.70
2018-09-18T00:12:13.410Z,9.27
2018-09-18T00:14:43.583Z,12.27
2018-09-18T00:17:13.205Z,10.13
2018-09-18T00:19:42.950Z,8.60
2018-09-18T00:22:12.776Z,10.63
2018-09-18T00:24:42.382Z,9.13
2018-09-18T00:27:11.966Z,8.27
2018-09-18T00:29:41.476Z,8.40
2018-09-18T00:32:12.283Z,9.07
2018-09-18T00:34:42.128Z,8.90
2018-09-18T00:37:12.239Z,8.83
2018-09-18T00:39:41.748Z,7.93
2018-09-18T00:42:11.460Z,8.77
2018-09-18T00:44:49.258Z,11.00
2018-09-18T00:47:19.101Z,8.93
2018-09-18T00:49:49.571Z,8.33
2018-09-18T00:52:19.821Z,9.10
2018-09-18T00:54:49.365Z,9.40
2018-09-18T00:57:19.150Z,9.20
2018-09-18T00:59:50.507Z,9.40
2018-09-18T01:02:20.314Z,10.83
2018-09-18T01:04:56.022Z,8.67
2018-09-18T01:07:25.759Z,9.13
2018-09-18T01:09:56.718Z,9.27
2018-09-18T01:12:27.040Z,11.83
2018-09-18T01:14:56.885Z,8.20
2018-09-18T01:17:27.437Z,9.37
2018-09-18T01:19:59.436Z,10.57
2018-09-18T01:22:29.472Z,8.63
2018-09-18T01:24:59.084Z,9.43
2018-09-18T01:27:28.630Z,13.43
2018-09-18T01:29:58.177Z,9.20
2018-09-18T01:32:27.648Z,8.43
2018-09-18T01:34:59.149Z,9.10
2018-09-18T01:37:29.409Z,8.63
2018-09-18T01:39:59.837Z,14.13
2018-09-18T01:42:29.914Z,9.63
2018-09-18T01:45:01.278Z,10.83
2018-09-18T01:47:31.873Z,9.20
2018-09-18T01:50:02.704Z,9.10
2018-09-18T01:52:32.445Z,8.93
2018-09-18T01:55:02.340Z,9.40
2018-09-18T01:57:34.317Z,8.90
2018-09-18T02:00:05.416Z,9.77
2018-09-18T02:02:36.049Z,9.33
2018-09-18T02:05:05.645Z,8.90
2018-09-18T02:07:35.165Z,9.03
2018-09-18T02:10:06.985Z,9.00
2018-09-18T02:12:36.427Z,8.90
2018-09-18T02:15:06.590Z,9.53
2018-09-18T02:17:36.190Z,10.43
2018-09-18T02:20:06.491Z,11.90
2018-09-18T02:22:37.541Z,10.17
2018-09-18T02:25:07.458Z,9.73
2018-09-18T02:27:38.037Z,9.50
2018-09-18T02:30:08.431Z,10.77
2018-09-18T02:32:39.743Z,10.00
2018-09-18T02:35:09.863Z,9.60
2018-09-18T02:37:39.494Z,10.20
2018-09-18T02:40:09.380Z,9.53
2018-09-18T02:42:38.933Z,9.70
2018-09-18T02:45:08.428Z,11.30
2018-09-18T02:47:37.828Z,10.57
2018-09-18T02:50:07.267Z,15.50
2018-09-18T02:52:36.653Z,9.57
2018-09-18T02:55:06.979Z,10.10
2018-09-18T02:57:36.441Z,9.73
2018-09-18T03:00:07.374Z,10.07
2018-09-18T03:02:36.910Z,9.33
2018-09-18T03:05:06.458Z,8.83
2018-09-18T03:07:35.960Z,10.33
2018-09-18T03:10:05.716Z,9.03
2018-09-18T03:12:35.599Z,9.83
2018-09-18T03:15:06.317Z,9.50
2018-09-18T03:17:36.081Z,9.20
2018-09-18T03:20:06.151Z,10.47
2018-09-18T03:22:35.732Z,9.80
2018-09-18T03:25:06.039Z,11.10
2018-09-18T03:27:35.575Z,10.10
2018-09-18T03:30:05.353Z,10.40
2018-09-18T03:32:34.858Z,9.33
2018-09-18T03:35:04.934Z,9.83
2018-09-18T03:37:34.466Z,9.83
2018-09-18T03:40:04.295Z,10.37
2018-09-18T03:42:34.459Z,12.63
2018-09-18T03:45:04.701Z,9.00
2018-09-18T03:47:34.509Z,9.13
2018-09-18T03:50:03.961Z,10.10
2018-09-18T03:52:36.979Z,10.03
2018-09-18T03:55:06.543Z,9.37
2018-09-18T03:57:36.213Z,9.17
2018-09-18T04:00:05.828Z,9.30
2018-09-18T04:02:35.503Z,9.50
2018-09-18T04:05:07.915Z,11.93
2018-09-18T04:07:37.448Z,11.13
2018-09-18T04:10:07.599Z,15.13
2018-09-18T04:12:37.311Z,9.50
2018-09-18T04:15:07.160Z,9.83
2018-09-18T04:17:36.968Z,11.47
2018-09-18T04:20:06.574Z,11.00
2018-09-18T04:22:36.180Z,9.90
2018-09-18T04:25:07.339Z,9.87
2018-09-18T04:27:37.038Z,10.63
2018-09-18T04:30:06.709Z,10.60
2018-09-18T04:32:36.216Z,10.17
2018-09-18T04:35:07.220Z,9.77
2018-09-18T04:37:36.864Z,10.27
2018-09-18T04:40:06.926Z,11.03
2018-09-18T04:42:36.592Z,9.50
2018-09-18T04:45:06.978Z,9.87
2018-09-18T04:47:39.023Z,9.80
2018-09-18T04:50:08.774Z,10.50
2018-09-18T04:52:38.344Z,9.97
2018-09-18T04:55:07.907Z,9.90
2018-09-18T04:57:37.329Z,10.40
2018-09-18T05:00:08.513Z,13.03
2018-09-18T05:02:38.841Z,13.00
2018-09-18T05:05:09.193Z,11.60
2018-09-18T05:07:39.620Z,12.13
2018-09-18T05:10:09.483Z,10.80
2018-09-18T05:12:40.287Z,11.23
2018-09-18T05:15:10.897Z,13.47
2018-09-18T05:17:41.359Z,11.17
2018-09-18T05:20:11.995Z,11.93
2018-09-18T05:22:42.126Z,11.87
2018-09-18T05:25:11.785Z,10.60
2018-09-18T05:27:42.627Z,12.20
2018-09-18T05:30:12.407Z,17.47
2018-09-18T05:32:42.196Z,23.17
2018-09-18T05:35:11.785Z,11.50
2018-09-18T05:37:41.807Z,11.87
2018-09-18T05:40:11.345Z,16.73
2018-09-18T05:42:41.602Z,11.07
2018-09-18T05:45:11.311Z,13.87
2018-09-18T05:47:42.356Z,19.10
2018-09-18T05:50:14.766Z,10.40
2018-09-18T05:52:45.633Z,11.53
2018-09-18T05:55:17.646Z,10.73
2018-09-18T05:57:49.102Z,18.30
2018-09-18T06:00:19.017Z,10.87
2018-09-18T06:02:52.379Z,14.83
2018-09-18T06:05:29.306Z,17.83
2018-09-18T06:08:15.335Z,15.90
2018-09-18T06:11:00.844Z,14.87
2018-09-18T06:13:57.339Z,12.23
2018-09-18T06:16:42.137Z,13.27
2018-09-18T06:23:36.040Z,10.77
2018-09-18T06:26:07.259Z,16.23
2018-09-18T06:31:34.853Z,15.10
2018-09-18T06:34:06.001Z,14.60
2018-09-18T06:36:35.652Z,18.27
2018-09-18T06:39:11.412Z,14.00
2018-09-18T06:41:41.836Z,13.93
2018-09-18T06:44:11.906Z,15.63
2018-09-18T06:46:43.408Z,13.60
2018-09-18T06:49:14.118Z,11.17
2018-09-18T06:51:44.386Z,12.27
2018-09-18T06:54:13.806Z,13.77
2018-09-18T06:56:44.173Z,11.97
2018-09-18T06:59:13.724Z,17.43
2018-09-18T07:01:44.433Z,13.00
2018-09-18T07:04:13.894Z,14.93
2018-09-18T07:06:44.748Z,15.03
2018-09-18T07:09:14.495Z,17.03
2018-09-18T07:11:45.215Z,13.53
2018-09-18T07:14:15.562Z,12.63
2018-09-18T07:16:45.782Z,12.70
2018-09-18T07:19:15.905Z,9.80
2018-09-18T07:21:45.306Z,14.53
2018-09-18T07:24:14.724Z,17.90
2018-09-18T07:26:44.720Z,14.40
2018-09-18T07:29:14.900Z,17.50
2018-09-18T07:31:44.245Z,19.00
2018-09-18T07:34:13.723Z,23.00
2018-09-18T07:36:46.860Z,14.00
2018-09-18T07:39:16.385Z,14.40
2018-09-18T07:41:46.527Z,16.87
2018-09-18T07:47:12.901Z,15.03
2018-09-18T08:03:19.266Z,13.03
2018-09-18T08:05:48.701Z,13.17
2018-09-18T08:08:19.303Z,17.87
2018-09-18T08:10:50.063Z,10.33
2018-09-18T08:13:19.825Z,12.33
2018-09-18T08:15:49.535Z,15.97
2018-09-18T08:18:19.202Z,18.20
2018-09-18T08:20:49.586Z,16.60
2018-09-18T08:23:19.910Z,15.73
2018-09-18T08:25:49.518Z,20.87
2018-09-18T08:28:19.575Z,18.93
2018-09-18T08:30:49.391Z,17.87
2018-09-18T08:35:27.518Z,23.53
2018-09-18T08:37:59.366Z,15.37
2018-09-18T08:40:30.343Z,15.63
2018-09-18T08:43:00.494Z,19.60
2018-09-18T08:45:34.443Z,13.33
2018-09-18T08:48:04.601Z,14.20
2018-09-18T08:50:34.533Z,13.10
2018-09-18T08:53:05.098Z,10.00
2018-09-18T08:55:35.225Z,15.97
2018-09-18T08:58:07.602Z,13.57
2018-09-18T09:00:38.142Z,11.67
2018-09-18T09:03:09.650Z,19.57
2018-09-18T09:05:39.367Z,13.33
2018-09-18T09:08:10.136Z,12.47
2018-09-18T09:10:39.977Z,12.97
2018-09-18T09:13:11.056Z,12.37
2018-09-18T09:15:40.942Z,12.63
2018-09-18T09:18:11.708Z,10.67
2018-09-18T09:20:43.434Z,14.47
2018-09-18T09:23:14.171Z,12.03
2018-09-18T09:25:48.510Z,12.33
2018-09-18T09:28:19.217Z,12.40
2018-09-18T09:30:49.683Z,16.93
2018-09-18T09:33:24.099Z,16.23
2018-09-18T09:35:54.465Z,13.10
2018-09-18T09:38:24.618Z,11.87
2018-09-18T09:40:57.116Z,10.73
2018-09-18T09:43:27.890Z,13.03
2018-09-18T09:45:57.936Z,13.73
2018-09-18T09:48:31.788Z,11.80
2018-09-18T09:51:06.377Z,9.93
2018-09-18T09:53:37.886Z,11.23
2018-09-18T09:56:10.401Z,13.70
2018-09-18T09:58:47.809Z,11.33
2018-09-18T10:01:24.084Z,11.37
2018-09-18T10:03:57.275Z,8.87
2018-09-18T10:06:28.877Z,9.63
2018-09-18T10:09:01.089Z,20.57
2018-09-18T10:11:34.157Z,17.30
2018-09-18T10:14:05.162Z,16.73
2018-09-18T10:16:36.131Z,10.97
2018-09-18T10:19:09.331Z,7.77
2018-09-18T10:21:54.973Z,19.20
2018-09-18T10:24:30.108Z,12.93
2018-09-18T10:27:07.315Z,12.77
2018-09-18T10:29:42.650Z,10.67
2018-09-18T10:32:14.868Z,9.00
2018-09-18T10:34:48.791Z,11.13
2018-09-18T10:37:19.065Z,7.43
2018-09-18T10:39:57.205Z,10.37
2018-09-18T10:42:27.317Z,10.50
2018-09-18T10:44:58.322Z,7.10
2018-09-18T10:47:36.167Z,9.80
2018-09-18T10:50:11.538Z,7.73
2018-09-18T10:52:41.574Z,12.90
2018-09-18T10:55:12.470Z,17.20
2018-09-18T10:57:43.231Z,8.63
2018-09-18T11:00:14.280Z,18.57
2018-09-18T11:02:44.806Z,10.93
2018-09-18T11:05:15.042Z,14.57
2018-09-18T11:07:46.098Z,15.10
2018-09-18T11:10:16.235Z,8.30
2018-09-18T11:12:47.349Z,5.70
2018-09-18T11:15:17.213Z,8.23
2018-09-18T11:17:46.808Z,8.10
2018-09-18T11:20:18.226Z,9.03
2018-09-18T11:22:50.437Z,12.63
2018-09-18T11:25:32.511Z,9.33
2018-09-18T11:28:02.918Z,13.23
2018-09-18T11:30:37.065Z,19.90
2018-09-18T11:33:06.918Z,15.90
2018-09-18T11:35:44.841Z,11.00
2018-09-18T11:38:20.490Z,10.57
2018-09-18T11:40:57.430Z,8.57
2018-09-18T11:43:31.363Z,8.60
2018-09-18T11:46:02.476Z,9.67
2018-09-18T11:51:35.930Z,8.43
2018-09-18T11:54:06.409Z,11.77
2018-09-18T11:56:37.395Z,11.37
2018-09-18T11:59:13.417Z,9.17
2018-09-18T12:01:43.152Z,7.03
2018-09-18T12:04:15.761Z,9.40
2018-09-18T12:06:46.593Z,7.27
2018-09-18T12:09:16.653Z,7.87
2018-09-18T12:11:47.697Z,10.47
2018-09-18T12:14:18.546Z,9.53
2018-09-18T12:16:48.752Z,10.67
2018-09-18T12:19:19.220Z,7.87
2018-09-18T12:21:49.028Z,5.33
2018-09-18T12:24:19.318Z,12.70
2018-09-18T12:26:49.484Z,9.53
2018-09-18T12:29:22.039Z,6.13
2018-09-18T12:31:52.087Z,8.43
2018-09-18T12:34:22.310Z,6.97
2018-09-18T12:36:53.640Z,10.87
2018-09-18T12:39:27.797Z,10.07
2018-09-18T12:41:57.839Z,4.27
2018-09-18T12:44:28.833Z,8.27
2018-09-18T12:47:06.064Z,4.83
2018-09-18T12:49:40.750Z,10.20
2018-09-18T12:52:12.986Z,5.57
2018-09-18T12:54:44.496Z,6.00
2018-09-18T12:58:15.301Z,7.37
2018-09-18T13:01:37.095Z,11.33
2018-09-18T13:04:22.698Z,8.97
2018-09-18T13:06:59.558Z,5.30
2018-09-18T13:09:43.737Z,4.30
2018-09-18T13:12:23.564Z,5.67
2018-09-18T13:14:54.608Z,3.90
2018-09-18T13:17:25.447Z,7.53
2018-09-18T13:19:56.817Z,6.07
2018-09-18T13:22:43.671Z,4.93
2018-09-18T13:25:22.614Z,5.60
2018-09-18T13:28:03.827Z,4.10
2018-09-18T13:30:38.301Z,6.73
2018-09-18T13:33:33.783Z,5.43
2018-09-18T13:36:12.735Z,5.17
2018-09-18T13:38:44.007Z,7.37
2018-09-18T13:41:13.942Z,5.67
2018-09-18T13:43:59.761Z,5.27
2018-09-18T13:46:39.275Z,5.60
2018-09-18T13:49:19.860Z,10.97
2018-09-18T13:51:55.325Z,8.67
2018-09-18T13:54:27.035Z,9.93
2018-09-18T13:56:58.710Z,5.73
2018-09-18T13:59:39.620Z,6.93
2018-09-18T14:04:57.457Z,6.70
2018-09-18T14:07:29.088Z,5.40
2018-09-18T14:09:59.096Z,4.57
2018-09-18T14:12:32.257Z,9.57
2018-09-18T14:15:07.248Z,23.97
2018-09-18T14:17:37.741Z,16.30
2018-09-18T14:20:10.234Z,11.47
2018-09-18T14:22:40.126Z,9.53
2018-09-18T14:25:10.865Z,9.93
2018-09-18T14:27:50.146Z,6.73
2018-09-18T14:30:19.960Z,19.57
2018-09-18T14:32:49.604Z,8.03
2018-09-18T14:35:20.435Z,6.43
2018-09-18T14:37:55.020Z,6.83
2018-09-18T14:40:30.012Z,17.47
2018-09-18T14:42:59.970Z,16.03
2018-09-18T14:45:32.904Z,25.73
2018-09-18T14:48:15.155Z,12.30
2018-09-18T14:51:13.960Z,8.23
2018-09-18T14:53:47.507Z,7.57
2018-09-18T14:56:18.183Z,8.57
2018-09-18T14:58:51.297Z,4.90
2018-09-18T15:01:21.120Z,5.73
2018-09-18T15:03:51.483Z,5.70
2018-09-18T15:06:22.421Z,6.77
2018-09-18T15:08:53.032Z,6.10
2018-09-18T15:11:22.890Z,7.63
2018-09-18T15:13:56.459Z,7.63
2018-09-18T15:16:30.384Z,9.33
2018-09-18T15:19:00.503Z,8.40
2018-09-18T15:21:33.403Z,7.00
2018-09-18T15:24:03.153Z,5.27
2018-09-18T15:26:34.344Z,8.27
2018-09-18T15:29:05.747Z,6.13
2018-09-18T15:31:36.681Z,5.93
2018-09-18T15:34:07.523Z,8.70
2018-09-18T15:36:40.102Z,6.17
2018-09-18T15:39:14.504Z,5.80
2018-09-18T15:41:53.182Z,5.60
2018-09-18T15:44:25.185Z,5.20
2018-09-18T15:46:54.842Z,5.50
2018-09-18T15:49:25.812Z,8.40
2018-09-18T15:51:55.477Z,5.93
2018-09-18T15:54:25.813Z,5.67
2018-09-18T15:56:55.164Z,6.93
2018-09-18T15:59:25.437Z,8.40
2018-09-18T16:01:55.018Z,11.10
2018-09-18T16:04:26.329Z,6.93
2018-09-18T16:07:11.104Z,5.90
2018-09-18T16:10:19.078Z,6.53
2018-09-18T16:12:48.808Z,5.63
2018-09-18T16:15:19.559Z,8.93
2018-09-18T16:17:50.036Z,11.70
2018-09-18T16:20:20.563Z,14.83
2018-09-18T16:22:51.547Z,9.50
2018-09-18T16:25:40.592Z,14.93
2018-09-18T16:28:27.332Z,10.57
2018-09-18T16:31:00.959Z,11.43
2018-09-18T16:33:32.990Z,7.77
2018-09-18T16:36:04.142Z,7.53
2018-09-18T16:38:34.882Z,6.17
2018-09-18T16:41:04.900Z,5.70
2018-09-18T16:43:34.766Z,7.63
2018-09-18T16:46:04.394Z,12.40
2018-09-18T16:48:41.506Z,5.50
2018-09-18T16:51:12.259Z,6.40
2018-09-18T16:53:43.631Z,8.10
2018-09-18T16:56:13.700Z,5.77
2018-09-18T16:58:43.715Z,14.07
2018-09-18T17:01:14.555Z,135.10
2018-09-18T17:04:01.879Z,63.00
2018-09-18T17:06:47.104Z,77.30
2018-09-18T17:09:18.490Z,24.87
2018-09-18T17:11:49.937Z,43.17
2018-09-18T17:14:23.210Z,16.40
2018-09-18T17:16:54.596Z,32.10
2018-09-18T17:19:24.747Z,13.57
2018-09-18T17:21:54.719Z,31.30
2018-09-18T17:24:25.787Z,22.47
2018-09-18T17:26:57.277Z,25.00
2018-09-18T17:29:27.812Z,45.67
2018-09-18T17:31:57.832Z,39.33
2018-09-18T17:34:30.106Z,94.90
2018-09-18T17:37:02.167Z,109.87
2018-09-18T17:39:32.281Z,66.77
2018-09-18T17:42:04.441Z,40.17
2018-09-18T17:44:35.726Z,24.07
2018-09-18T17:47:06.609Z,49.67
2018-09-18T17:49:38.351Z,53.37
2018-09-18T17:52:09.854Z,34.33
2018-09-18T17:54:40.817Z,16.73
2018-09-18T17:57:12.291Z,25.40
2018-09-18T17:59:44.101Z,13.93
2018-09-18T18:02:14.407Z,18.97
2018-09-18T18:04:47.855Z,19.13
2018-09-18T18:07:20.311Z,15.40
2018-09-18T18:09:52.256Z,17.70
2018-09-18T18:12:21.811Z,17.03
2018-09-18T18:14:52.952Z,22.70
2018-09-18T18:17:24.078Z,35.93
2018-09-18T18:19:55.497Z,52.50
2018-09-18T18:22:26.452Z,62.77
2018-09-18T18:24:56.780Z,36.90
2018-09-18T18:27:27.899Z,28.10
2018-09-18T18:30:00.597Z,20.17
2018-09-18T18:32:33.031Z,14.67
2018-09-18T18:36:15.944Z,21.47
2018-09-18T18:38:49.309Z,17.47
2018-09-18T18:41:21.255Z,19.70
2018-09-18T18:43:52.138Z,17.13
2018-09-18T18:46:28.597Z,13.97
2018-09-18T18:48:58.274Z,16.73
2018-09-18T18:51:27.815Z,13.20
2018-09-18T18:53:58.399Z,16.87
2018-09-18T18:56:34.140Z,15.87
2018-09-18T18:59:06.104Z,15.07
2018-09-18T19:01:37.812Z,12.07
2018-09-18T19:04:07.813Z,14.50
2018-09-18T19:06:38.455Z,14.53
2018-09-18T19:09:12.849Z,13.87
2018-09-18T19:11:51.902Z,11.17
2018-09-18T19:14:28.423Z,13.50
2018-09-18T19:17:01.320Z,13.17
2018-09-18T19:19:31.830Z,12.47
2018-09-18T19:22:07.244Z,12.53
2018-09-18T19:24:37.456Z,18.27
2018-09-18T19:27:08.401Z,16.53
2018-09-18T19:29:45.381Z,13.53
2018-09-18T19:32:22.038Z,11.33
2018-09-18T19:34:54.413Z,11.50
2018-09-18T19:37:28.213Z,13.03
2018-09-18T19:40:07.238Z,10.07
2018-09-18T19:42:40.524Z,13.47
2018-09-18T19:45:14.781Z,9.10
2018-09-18T19:48:02.607Z,9.23
2018-09-18T19:50:42.676Z,11.03
2018-09-18T19:53:17.726Z,11.23
2018-09-18T19:56:00.725Z,7.83
2018-09-18T19:58:33.102Z,8.17
2018-09-18T20:01:05.417Z,11.30
2018-09-18T20:03:39.529Z,9.50
2018-09-18T20:06:10.055Z,11.07
2018-09-18T20:08:42.679Z,8.57
2018-09-18T20:11:32.129Z,8.20
2018-09-18T20:14:15.660Z,10.27
2018-09-18T20:16:48.287Z,11.30
2018-09-18T20:19:21.877Z,7.70
2018-09-18T20:21:59.413Z,9.27
2018-09-18T20:24:34.766Z,9.87
2018-09-18T20:33:39.381Z,11.23
2018-09-18T20:36:26.830Z,15.47
2018-09-18T20:38:59.518Z,10.33
2018-09-18T20:41:32.718Z,13.97
2018-09-18T20:44:04.738Z,25.07
2018-09-18T20:46:37.081Z,21.50
2018-09-18T20:49:13.442Z,12.57
2018-09-18T20:51:51.788Z,11.50
2018-09-18T20:54:22.324Z,13.90
2018-09-18T20:57:00.289Z,11.50
2018-09-18T20:59:35.779Z,9.17
2018-09-18T21:02:11.677Z,8.57
2018-09-18T21:04:42.514Z,10.50
2018-09-18T21:07:12.424Z,10.27
2018-09-18T21:09:45.570Z,11.50
2018-09-18T21:12:16.145Z,13.50
2018-09-18T21:14:46.061Z,8.17
2018-09-18T21:17:16.301Z,7.80
2018-09-18T21:19:49.305Z,11.20
2018-09-18T21:22:23.851Z,9.60
2018-09-18T21:25:10.327Z,8.60
2018-09-18T21:27:42.389Z,13.00
2018-09-18T21:30:13.678Z,7.93
2018-09-18T21:32:43.370Z,10.20
2018-09-18T21:35:13.701Z,8.80
2018-09-18T21:37:44.319Z,8.53
2018-09-18T21:40:14.131Z,7.87
2018-09-18T21:42:44.915Z,10.43
2018-09-18T21:45:18.825Z,11.80
2018-09-18T21:48:04.225Z,10.00
2018-09-18T21:50:38.551Z,11.17
2018-09-18T21:53:20.125Z,8.90
2018-09-18T21:55:57.798Z,9.47
2018-09-18T21:58:36.377Z,12.03
2018-09-18T22:01:10.328Z,9.93
2018-09-18T22:03:46.385Z,12.47
2018-09-18T22:06:29.541Z,8.90
2018-09-18T22:09:01.465Z,10.90
2018-09-18T22:11:33.145Z,10.23
2018-09-18T22:14:04.376Z,7.90
2018-09-18T22:16:41.280Z,8.70
2018-09-18T22:19:18.128Z,6.60
2018-09-18T22:21:52.081Z,8.80
2018-09-18T22:24:24.972Z,6.80
2018-09-18T22:26:56.930Z,10.10
2018-09-18T22:29:31.404Z,9.37
2018-09-18T22:32:01.102Z,8.57
2018-09-18T22:34:32.716Z,7.43
2018-09-18T22:37:04.347Z,10.70
2018-09-18T22:39:34.813Z,10.00
2018-09-18T22:42:08.280Z,14.67
2018-09-18T22:44:38.570Z,7.63
2018-09-18T22:47:09.808Z,11.27
2018-09-18T22:49:51.466Z,9.03
2018-09-18T22:52:22.197Z,9.67
2018-09-18T22:54:54.013Z,9.97
2018-09-18T22:57:25.268Z,9.57
2018-09-18T22:59:59.728Z,8.00
2018-09-18T23:02:29.635Z,11.23
2018-09-18T23:05:00.053Z,8.63
2018-09-18T23:07:29.949Z,9.30
2018-09-18T23:10:01.052Z,8.40
2018-09-18T23:12:32.922Z,10.20
2018-09-18T23:15:04.378Z,7.17
2018-09-18T23:17:36.026Z,11.40
2018-09-18T23:20:08.269Z,10.57
2018-09-18T23:22:38.319Z,8.00
2018-09-18T23:25:11.813Z,9.47
2018-09-18T23:27:42.554Z,8.23
2018-09-18T23:30:13.271Z,7.77
2018-09-18T23:32:44.423Z,7.50
2018-09-18T23:35:15.818Z,6.87
2018-09-18T23:37:47.528Z,9.20
2018-09-18T23:40:18.158Z,7.10
2018-09-18T23:42:51.952Z,8.60
2018-09-18T23:45:22.300Z,11.53
2018-09-18T23:47:53.849Z,8.13
2018-09-18T23:50:24.771Z,9.20
2018-09-18T23:52:55.217Z,7.40
2018-09-18T23:55:29.109Z,11.23
2018-09-18T23:58:02.112Z,6.67
